createdAt,value
2022-08-04T00:01:08.699Z,21.79
2022-08-04T00:03:48.265Z,21.78
2022-08-04T00:06:23.440Z,21.69
2022-08-04T00:09:00.296Z,21.64
2022-08-04T00:11:30.904Z,21.63
2022-08-04T00:14:03.518Z,21.60
2022-08-04T00:16:37.823Z,21.59
2022-08-04T00:19:12.157Z,21.57
2022-08-04T00:21:39.390Z,21.53
2022-08-04T00:24:10.379Z,21.50
2022-08-04T00:26:40.252Z,21.45
2022-08-04T00:29:06.858Z,21.40
2022-08-04T00:31:56.523Z,21.36
2022-08-04T00:34:21.413Z,21.31
2022-08-04T00:36:50.311Z,21.27
2022-08-04T00:39:19.792Z,21.22
2022-08-04T00:42:17.945Z,21.16
2022-08-04T00:45:18.054Z,21.10
2022-08-04T00:48:07.844Z,21.02
2022-08-04T00:50:57.033Z,20.94
2022-08-04T00:53:57.839Z,20.86
2022-08-04T00:56:36.649Z,20.81
2022-08-04T00:59:28.567Z,20.77
2022-08-04T01:02:11.418Z,20.80
2022-08-04T01:04:46.157Z,20.77
2022-08-04T01:07:43.460Z,20.73
2022-08-04T01:10:37.848Z,20.67
2022-08-04T01:13:25.957Z,20.64
2022-08-04T01:16:01.021Z,20.62
2022-08-04T01:18:39.477Z,20.61
2022-08-04T01:21:43.665Z,20.58
2022-08-04T01:24:45.819Z,20.54
2022-08-04T01:27:47.544Z,20.52
2022-08-04T01:30:14.546Z,20.49
2022-08-04T01:32:53.558Z,20.44
2022-08-04T01:35:47.275Z,20.34
2022-08-04T01:38:21.573Z,20.22
2022-08-04T01:40:53.017Z,20.09
2022-08-04T01:43:20.418Z,20.03
2022-08-04T01:46:01.536Z,19.99
2022-08-04T01:48:29.385Z,19.98
2022-08-04T01:51:04.426Z,19.97
2022-08-04T01:53:40.408Z,19.98
2022-08-04T01:56:09.083Z,19.95
2022-08-04T01:58:38.634Z,19.91
2022-08-04T02:01:08.606Z,19.88
2022-08-04T02:04:22.097Z,19.82
2022-08-04T02:06:49.280Z,19.80
2022-08-04T02:09:54.707Z,19.76
2022-08-04T02:12:34.164Z,19.73
2022-08-04T02:15:08.805Z,19.70
2022-08-04T02:18:08.730Z,19.68
2022-08-04T02:20:39.158Z,19.69
2022-08-04T02:23:09.776Z,19.62
2022-08-04T02:25:47.146Z,19.58
2022-08-04T02:28:27.712Z,19.55
2022-08-04T02:31:09.205Z,19.54
2022-08-04T02:33:38.571Z,19.54
2022-08-04T02:36:09.525Z,19.51
2022-08-04T02:38:59.742Z,19.43
2022-08-04T02:41:29.593Z,19.34
2022-08-04T02:44:02.742Z,19.23
2022-08-04T02:46:30.999Z,19.19
2022-08-04T02:48:57.709Z,19.16
2022-08-04T02:51:30.196Z,19.20
2022-08-04T02:54:03.083Z,19.19
2022-08-04T02:56:32.331Z,19.18
2022-08-04T02:59:07.839Z,19.14
2022-08-04T03:01:35.470Z,19.16
2022-08-04T03:04:24.943Z,19.14
2022-08-04T03:07:15.702Z,19.14
2022-08-04T03:10:04.430Z,19.11
2022-08-04T03:12:58.893Z,19.07
2022-08-04T03:16:03.459Z,19.08
2022-08-04T03:18:48.748Z,19.02
2022-08-04T03:21:40.475Z,19.02
2022-08-04T03:24:20.321Z,19.00
2022-08-04T03:27:06.664Z,18.99
2022-08-04T03:29:57.883Z,18.97
2022-08-04T03:32:30.599Z,18.94
2022-08-04T03:35:33.602Z,18.95
2022-08-04T03:38:26.014Z,18.96
2022-08-04T03:41:51.569Z,18.99
2022-08-04T03:44:37.334Z,18.99
2022-08-04T03:47:44.661Z,18.99
2022-08-04T03:50:47.064Z,18.99
2022-08-04T03:53:19.725Z,18.99
2022-08-04T03:56:11.898Z,18.97
2022-08-04T03:58:53.848Z,18.97
2022-08-04T04:01:23.509Z,18.99
2022-08-04T04:04:12.264Z,19.01
2022-08-04T04:07:17.539Z,19.01
2022-08-04T04:10:06.188Z,19.01
2022-08-04T04:12:49.315Z,19.04
2022-08-04T04:15:34.629Z,19.02
2022-08-04T04:18:23.416Z,19.04
2022-08-04T04:20:59.120Z,19.01
2022-08-04T04:23:43.753Z,18.96
2022-08-04T04:26:32.901Z,18.89
2022-08-04T04:29:18.586Z,18.90
2022-08-04T04:32:07.468Z,18.89
2022-08-04T04:34:49.307Z,18.84
2022-08-04T04:37:26.070Z,18.83
2022-08-04T04:39:52.596Z,18.82
2022-08-04T04:42:38.381Z,18.82
2022-08-04T04:45:35.461Z,18.83
2022-08-04T04:48:17.801Z,18.86
2022-08-04T04:50:56.021Z,18.91
2022-08-04T04:54:00.859Z,18.94
2022-08-04T04:56:53.576Z,19.01
2022-08-04T04:59:28.666Z,19.06
2022-08-04T05:02:27.616Z,19.11
2022-08-04T05:05:10.171Z,19.17
2022-08-04T05:08:43.510Z,19.23
2022-08-04T05:11:26.881Z,19.30
2022-08-04T05:14:35.207Z,19.34
2022-08-04T05:17:12.431Z,19.40
2022-08-04T05:19:49.128Z,19.47
2022-08-04T05:22:25.333Z,19.51
2022-08-04T05:25:03.060Z,19.57
2022-08-04T05:27:40.129Z,19.60
2022-08-04T05:30:08.834Z,19.66
2022-08-04T05:32:45.162Z,19.70
2022-08-04T05:35:16.682Z,19.78
2022-08-04T05:38:06.310Z,19.87
2022-08-04T05:40:33.186Z,19.93
2022-08-04T05:43:01.682Z,19.98
2022-08-04T05:45:29.838Z,20.09
2022-08-04T05:48:11.617Z,20.18
2022-08-04T05:50:39.005Z,20.25
2022-08-04T05:53:06.306Z,20.30
2022-08-04T05:55:58.433Z,20.37
2022-08-04T05:58:24.841Z,20.49
2022-08-04T06:00:52.761Z,20.62
2022-08-04T06:03:21.355Z,20.76
2022-08-04T06:05:49.789Z,20.89
2022-08-04T06:08:16.602Z,20.97
2022-08-04T06:10:46.107Z,21.11
2022-08-04T06:13:45.419Z,21.22
2022-08-04T06:16:07.015Z,21.37
2022-08-04T06:20:00.537Z,21.52
2022-08-04T06:21:28.071Z,21.65
2022-08-04T06:24:00.826Z,21.82
2022-08-04T06:26:32.784Z,21.97
2022-08-04T06:29:01.285Z,22.15
2022-08-04T06:32:31.378Z,22.30
2022-08-04T06:34:35.202Z,22.49
2022-08-04T06:37:03.054Z,22.63
2022-08-04T06:39:32.128Z,22.83
2022-08-04T06:42:21.562Z,22.99
2022-08-04T06:44:55.612Z,23.18
2022-08-04T06:47:23.052Z,23.40
2022-08-04T06:51:25.895Z,23.66
2022-08-04T06:52:39.983Z,23.89
2022-08-04T06:55:08.113Z,24.16
2022-08-04T06:57:36.340Z,24.35
2022-08-04T07:00:10.405Z,24.48
2022-08-04T07:02:50.886Z,24.63
2022-08-04T07:05:18.808Z,24.71
2022-08-04T07:07:57.305Z,24.77
2022-08-04T07:10:27.861Z,24.84
2022-08-04T07:12:56.704Z,24.94
2022-08-04T07:15:23.673Z,25.07
2022-08-04T07:17:52.303Z,25.20
2022-08-04T07:20:34.102Z,25.38
2022-08-04T07:23:03.459Z,25.69
2022-08-04T07:25:58.895Z,25.94
2022-08-04T07:28:17.433Z,26.18
2022-08-04T07:30:45.370Z,26.64
2022-08-04T07:33:12.299Z,26.85
2022-08-04T07:36:06.039Z,27.15
2022-08-04T07:38:27.308Z,27.48
2022-08-04T07:40:56.001Z,27.83
2022-08-04T07:43:23.308Z,28.20
2022-08-04T07:45:50.233Z,28.43
2022-08-04T07:48:18.836Z,28.64
2022-08-04T07:50:47.049Z,28.80
2022-08-04T07:53:54.442Z,28.92
2022-08-04T07:56:02.632Z,28.98
2022-08-04T07:58:30.205Z,29.11
2022-08-04T08:00:57.776Z,29.23
2022-08-04T08:03:26.170Z,29.46
2022-08-04T08:06:16.900Z,29.61
2022-08-04T08:08:40.122Z,29.81
2022-08-04T08:11:07.450Z,29.99
2022-08-04T08:13:34.394Z,30.14
2022-08-04T08:16:02.505Z,30.26
2022-08-04T08:18:30.400Z,30.46
2022-08-04T08:20:57.888Z,30.48
2022-08-04T08:23:26.006Z,30.77
2022-08-04T08:25:52.825Z,30.98
2022-08-04T08:28:19.586Z,31.22
2022-08-04T08:30:52.863Z,31.29
2022-08-04T08:33:21.966Z,31.48
2022-08-04T08:35:56.388Z,31.63
2022-08-04T08:39:00.152Z,31.79
2022-08-04T08:42:10.641Z,31.93
2022-08-04T08:45:11.097Z,31.82
2022-08-04T08:48:11.566Z,31.76
2022-08-04T08:51:01.394Z,31.82
2022-08-04T08:53:42.945Z,31.78
2022-08-04T08:56:31.125Z,31.78
2022-08-04T08:59:26.768Z,32.03
2022-08-04T09:02:18.328Z,32.43
2022-08-04T09:05:12.809Z,32.67
2022-08-04T09:08:10.777Z,33.02
2022-08-04T09:10:44.594Z,32.99
2022-08-04T09:13:30.583Z,33.05
2022-08-04T09:16:11.714Z,33.17
2022-08-04T09:18:55.009Z,33.09
2022-08-04T09:21:41.702Z,33.35
2022-08-04T09:24:36.586Z,33.42
2022-08-04T09:27:13.617Z,33.52
2022-08-04T09:29:52.050Z,33.52
2022-08-04T09:32:34.962Z,33.46
2022-08-04T09:35:15.632Z,33.41
2022-08-04T09:37:51.514Z,33.67
2022-08-04T09:40:31.794Z,33.85
2022-08-04T09:44:49.208Z,34.20
2022-08-04T09:46:53.773Z,34.18
2022-08-04T09:49:38.488Z,34.19
2022-08-04T09:52:27.014Z,34.14
2022-08-04T09:55:12.045Z,34.42
2022-08-04T09:57:55.433Z,34.65
2022-08-04T10:00:40.451Z,34.80
2022-08-04T10:03:16.048Z,34.82
2022-08-04T10:06:01.729Z,34.83
2022-08-04T10:08:57.356Z,35.03
2022-08-04T10:11:55.462Z,35.03
2022-08-04T10:14:52.085Z,35.11
2022-08-04T10:17:52.386Z,35.42
2022-08-04T10:20:44.851Z,35.47
2022-08-04T10:23:18.039Z,35.43
2022-08-04T10:26:05.661Z,35.18
2022-08-04T10:28:43.514Z,35.26
2022-08-04T10:31:17.762Z,35.47
2022-08-04T10:34:11.482Z,35.56
2022-08-04T10:37:05.633Z,35.73
2022-08-04T10:40:13.572Z,35.64
2022-08-04T10:42:50.172Z,35.66
2022-08-04T10:45:19.960Z,35.78
2022-08-04T10:48:34.192Z,35.89
2022-08-04T10:51:20.730Z,36.05
2022-08-04T10:53:53.898Z,36.22
2022-08-04T10:56:37.365Z,36.21
2022-08-04T10:59:09.791Z,36.07
2022-08-04T11:01:50.674Z,36.17
2022-08-04T11:04:44.393Z,35.88
2022-08-04T11:07:13.538Z,35.67
2022-08-04T11:09:42.908Z,35.33
2022-08-04T11:12:26.293Z,35.24
2022-08-04T11:15:09.261Z,35.27
2022-08-04T11:17:57.470Z,35.20
2022-08-04T11:20:38.517Z,35.12
2022-08-04T11:23:09.886Z,35.22
2022-08-04T11:25:51.535Z,35.34
2022-08-04T11:28:38.595Z,35.53
2022-08-04T11:31:11.449Z,35.58
2022-08-04T11:33:56.921Z,35.70
2022-08-04T11:36:36.729Z,35.65
2022-08-04T11:39:11.463Z,35.59
2022-08-04T11:41:38.157Z,35.62
2022-08-04T11:44:12.268Z,35.73
2022-08-04T11:46:44.767Z,35.75
2022-08-04T11:49:27.002Z,35.86
2022-08-04T11:51:56.973Z,36.05
2022-08-04T11:54:23.804Z,36.18
2022-08-04T11:56:50.981Z,36.21
2022-08-04T11:59:20.136Z,36.08
2022-08-04T12:01:56.319Z,36.00
2022-08-04T12:04:51.030Z,35.95
2022-08-04T12:07:31.739Z,35.89
2022-08-04T12:10:41.249Z,35.68
2022-08-04T12:13:13.077Z,35.59
2022-08-04T12:15:56.116Z,35.50
2022-08-04T12:18:29.067Z,35.49
2022-08-04T12:21:03.459Z,35.42
2022-08-04T12:23:35.794Z,35.35
2022-08-04T12:26:09.246Z,35.12
2022-08-04T12:29:08.547Z,35.12
2022-08-04T12:31:52.925Z,35.17
2022-08-04T12:34:35.091Z,35.02
2022-08-04T12:37:22.638Z,35.13
2022-08-04T12:40:28.980Z,35.23
2022-08-04T12:42:59.335Z,35.43
2022-08-04T12:45:27.144Z,35.55
2022-08-04T12:47:57.695Z,35.61
2022-08-04T12:50:24.594Z,35.73
2022-08-04T12:53:03.485Z,35.78
2022-08-04T12:55:34.340Z,35.86
2022-08-04T12:58:10.243Z,36.07
2022-08-04T13:00:41.293Z,36.11
2022-08-04T13:03:12.301Z,36.09
2022-08-04T13:05:43.512Z,36.11
2022-08-04T13:08:11.516Z,36.01
2022-08-04T13:10:40.757Z,35.96
2022-08-04T13:13:15.929Z,35.70
2022-08-04T13:15:47.087Z,35.44
2022-08-04T13:18:28.936Z,35.53
2022-08-04T13:21:19.920Z,35.61
2022-08-04T13:24:09.904Z,35.75
2022-08-04T13:26:54.816Z,35.94
2022-08-04T13:29:59.695Z,35.92
2022-08-04T13:32:16.660Z,35.78
2022-08-04T13:34:49.171Z,35.72
2022-08-04T13:37:22.016Z,35.94
2022-08-04T13:39:55.782Z,36.02
2022-08-04T13:42:25.629Z,36.00
2022-08-04T13:44:59.425Z,35.94
2022-08-04T13:47:34.169Z,35.75
2022-08-04T13:50:17.298Z,35.68
2022-08-04T13:52:45.171Z,35.75
2022-08-04T13:55:20.661Z,35.73
2022-08-04T13:57:52.894Z,35.75
2022-08-04T14:00:29.486Z,35.85
2022-08-04T14:03:02.447Z,36.01
2022-08-04T14:05:35.350Z,36.24
2022-08-04T14:08:09.430Z,36.35
2022-08-04T14:10:36.940Z,36.30
2022-08-04T14:13:05.837Z,36.38
2022-08-04T14:16:01.432Z,36.25
2022-08-04T14:18:29.568Z,36.27
2022-08-04T14:21:16.495Z,36.39
2022-08-04T14:23:55.038Z,36.53
2022-08-04T14:26:33.020Z,36.49
2022-08-04T14:29:27.533Z,36.32
2022-08-04T14:32:12.588Z,36.17
2022-08-04T14:34:46.136Z,36.25
2022-08-04T14:37:20.715Z,36.30
2022-08-04T14:40:18.609Z,36.29
2022-08-04T14:42:54.619Z,36.38
2022-08-04T14:45:31.842Z,36.38
2022-08-04T14:47:59.653Z,36.42
2022-08-04T14:50:33.889Z,36.43
2022-08-04T14:53:12.123Z,36.20
2022-08-04T14:55:42.552Z,35.93
2022-08-04T14:58:35.637Z,35.88
2022-08-04T15:01:11.035Z,35.76
2022-08-04T15:03:49.709Z,35.50
2022-08-04T15:06:22.735Z,35.40
2022-08-04T15:08:51.502Z,35.34
2022-08-04T15:11:23.428Z,35.27
2022-08-04T15:13:54.786Z,35.26
2022-08-04T15:16:22.776Z,35.34
2022-08-04T15:18:51.169Z,35.21
2022-08-04T15:21:22.502Z,35.22
2022-08-04T15:23:52.970Z,35.12
2022-08-04T15:26:27.766Z,35.09
2022-08-04T15:29:05.362Z,34.93
2022-08-04T15:32:07.234Z,34.89
2022-08-04T15:34:25.838Z,34.91
2022-08-04T15:37:01.851Z,34.78
2022-08-04T15:39:43.720Z,34.34
2022-08-04T15:42:21.523Z,34.00
2022-08-04T15:44:51.305Z,33.69
2022-08-04T15:47:18.551Z,33.14
2022-08-04T15:49:46.842Z,32.82
2022-08-04T15:52:16.693Z,32.66
2022-08-04T15:54:52.311Z,32.28
2022-08-04T15:57:59.037Z,32.01
2022-08-04T16:00:30.426Z,31.66
2022-08-04T16:02:59.085Z,31.45
2022-08-04T16:05:25.583Z,31.30
2022-08-04T16:08:00.056Z,30.99
2022-08-04T16:10:32.851Z,30.61
2022-08-04T16:13:06.376Z,30.60
2022-08-04T16:15:45.034Z,30.08
2022-08-04T16:18:26.473Z,29.86
2022-08-04T16:20:56.844Z,29.36
2022-08-04T16:23:58.128Z,29.24
2022-08-04T16:26:42.341Z,28.97
2022-08-04T16:29:26.965Z,28.82
2022-08-04T16:32:06.130Z,28.68
2022-08-04T16:34:50.114Z,28.44
2022-08-04T16:37:21.765Z,28.42
2022-08-04T16:39:50.786Z,28.38
2022-08-04T16:42:27.503Z,28.32
2022-08-04T16:45:11.286Z,28.30
2022-08-04T16:47:47.156Z,28.23
2022-08-04T16:50:18.999Z,28.21
2022-08-04T16:52:48.341Z,28.25
2022-08-04T16:55:18.459Z,28.23
2022-08-04T16:57:49.669Z,28.11
2022-08-04T17:00:17.164Z,28.10
2022-08-04T17:02:49.672Z,28.06
2022-08-04T17:05:39.644Z,28.05
2022-08-04T17:10:56.228Z,27.97
2022-08-04T17:14:03.927Z,27.95
2022-08-04T17:16:23.725Z,27.92
2022-08-04T17:18:52.774Z,27.87
2022-08-04T17:21:26.263Z,27.84
2022-08-04T17:24:16.490Z,27.78
2022-08-04T17:26:53.538Z,27.76
2022-08-04T17:32:21.177Z,27.72
2022-08-04T17:34:51.166Z,27.69
2022-08-04T17:37:38.979Z,27.65
2022-08-04T17:40:07.341Z,27.67
2022-08-04T17:42:39.449Z,27.68
2022-08-04T17:47:59.676Z,27.67
2022-08-04T17:50:35.641Z,27.60
2022-08-04T17:53:11.805Z,27.64
2022-08-04T17:55:47.610Z,27.59
2022-08-04T17:58:22.378Z,27.57
2022-08-04T18:01:10.687Z,27.54
2022-08-04T18:03:52.723Z,27.51
2022-08-04T18:06:21.639Z,27.43
2022-08-04T18:08:57.689Z,27.35
2022-08-04T18:14:12.101Z,27.29
2022-08-04T18:16:45.830Z,27.26
2022-08-04T18:19:15.443Z,27.24
2022-08-04T18:24:35.974Z,27.21
2022-08-04T18:27:23.807Z,27.17
2022-08-04T18:30:31.126Z,27.13
2022-08-04T18:33:04.307Z,27.09
2022-08-04T18:35:30.628Z,27.03
2022-08-04T18:38:22.256Z,26.97
2022-08-04T18:40:54.447Z,26.93
2022-08-04T18:43:28.311Z,26.85
2022-08-04T18:46:00.745Z,26.80
2022-08-04T18:48:36.966Z,26.73
2022-08-04T18:51:22.251Z,26.66
2022-08-04T18:56:39.779Z,26.53
2022-08-04T18:59:26.703Z,26.46
2022-08-04T19:02:09.226Z,26.43
2022-08-04T19:04:40.562Z,26.38
2022-08-04T19:07:28.791Z,26.31
2022-08-04T19:09:58.451Z,26.21
2022-08-04T19:12:28.213Z,26.16
2022-08-04T19:14:58.082Z,26.12
2022-08-04T19:17:53.138Z,26.09
2022-08-04T19:20:16.067Z,26.05
2022-08-04T19:24:29.762Z,25.93
2022-08-04T19:25:59.680Z,25.86
2022-08-04T19:28:34.948Z,25.81
2022-08-04T19:31:03.345Z,25.79
2022-08-04T19:33:55.587Z,25.79
2022-08-04T19:39:11.631Z,25.74
2022-08-04T19:42:05.647Z,25.72
2022-08-04T19:44:29.602Z,25.67
2022-08-04T19:47:00.741Z,25.64
2022-08-04T19:50:04.592Z,25.63
2022-08-04T19:52:33.383Z,25.63
2022-08-04T19:55:01.211Z,25.61
2022-08-04T19:57:41.342Z,25.52
2022-08-04T20:00:09.332Z,25.47
2022-08-04T20:02:37.412Z,25.42
2022-08-04T20:05:08.657Z,25.39
2022-08-04T20:07:52.094Z,25.34
2022-08-04T20:10:23.688Z,25.31
2022-08-04T20:12:51.374Z,25.23
2022-08-04T20:15:22.553Z,25.14
2022-08-04T20:18:34.612Z,24.98
2022-08-04T20:20:36.684Z,24.90
2022-08-04T20:23:07.037Z,24.80
2022-08-04T20:25:38.802Z,24.74
2022-08-04T20:28:05.908Z,24.62
2022-08-04T20:30:35.840Z,24.55
2022-08-04T20:33:04.222Z,24.47
2022-08-04T20:35:32.642Z,24.43
2022-08-04T20:38:32.775Z,24.36
2022-08-04T20:41:00.791Z,24.32
2022-08-04T20:43:28.123Z,24.28
2022-08-04T20:45:59.623Z,24.17
2022-08-04T20:48:28.391Z,24.15
2022-08-04T20:50:55.074Z,24.06
2022-08-04T20:53:21.825Z,24.07
2022-08-04T20:56:08.502Z,24.04
2022-08-04T20:58:46.130Z,24.02
2022-08-04T21:01:14.477Z,24.00
2022-08-04T21:04:00.772Z,23.97
2022-08-04T21:06:28.340Z,23.90
2022-08-04T21:08:57.715Z,23.86
2022-08-04T21:11:24.638Z,23.81
2022-08-04T21:13:59.910Z,23.78
2022-08-04T21:16:55.862Z,23.70
2022-08-04T21:19:14.089Z,23.65
2022-08-04T21:21:42.267Z,23.62
2022-08-04T21:24:09.806Z,23.56
2022-08-04T21:26:37.670Z,23.54
2022-08-04T21:29:09.455Z,23.48
2022-08-04T21:31:36.938Z,23.42
2022-08-04T21:34:37.965Z,23.34
2022-08-04T21:37:04.312Z,23.27
2022-08-04T21:39:32.301Z,23.21
2022-08-04T21:42:29.048Z,23.14
2022-08-04T21:44:45.980Z,23.12
2022-08-04T21:47:22.413Z,23.09
2022-08-04T21:49:56.390Z,23.06
2022-08-04T21:52:24.795Z,23.02
2022-08-04T21:54:54.196Z,22.97
2022-08-04T21:57:22.757Z,22.92
2022-08-04T21:59:51.822Z,22.89
2022-08-04T22:02:18.520Z,22.84
2022-08-04T22:04:45.291Z,22.84
2022-08-04T22:07:12.683Z,22.78
2022-08-04T22:09:45.686Z,22.68
2022-08-04T22:12:27.379Z,22.67
2022-08-04T22:14:57.677Z,22.65
2022-08-04T22:17:35.409Z,22.63
2022-08-04T22:20:02.669Z,22.60
2022-08-04T22:22:29.951Z,22.56
2022-08-04T22:25:01.237Z,22.55
2022-08-04T22:27:47.223Z,22.54
2022-08-04T22:30:17.218Z,22.51
2022-08-04T22:32:48.343Z,22.46
2022-08-04T22:35:43.496Z,22.44
2022-08-04T22:38:20.578Z,22.39
2022-08-04T22:41:04.318Z,22.37
2022-08-04T22:43:34.360Z,22.33
2022-08-04T22:46:12.029Z,22.27
2022-08-04T22:48:39.774Z,22.26
2022-08-04T22:51:10.212Z,22.20
2022-08-04T22:53:40.076Z,22.15
2022-08-04T22:56:10.788Z,22.06
2022-08-04T22:58:40.772Z,22.03
2022-08-04T23:01:15.163Z,22.00
2022-08-04T23:03:55.403Z,21.90
2022-08-04T23:06:25.255Z,21.85
2022-08-04T23:08:53.498Z,21.77
2022-08-04T23:11:20.398Z,21.73
2022-08-04T23:13:49.097Z,21.65
2022-08-04T23:16:17.010Z,21.58
2022-08-04T23:18:45.127Z,21.56
2022-08-04T23:21:14.833Z,21.47
2022-08-04T23:23:55.331Z,21.47
2022-08-04T23:26:28.547Z,21.43
2022-08-04T23:28:56.377Z,21.40
2022-08-04T23:31:24.085Z,21.34
2022-08-04T23:33:54.195Z,21.28
2022-08-04T23:36:29.560Z,21.26
2022-08-04T23:39:04.031Z,21.22
2022-08-04T23:41:55.181Z,21.18
2022-08-04T23:44:24.267Z,21.09
2022-08-04T23:47:02.952Z,21.00
2022-08-04T23:49:42.227Z,20.98
2022-08-04T23:52:28.022Z,20.93
2022-08-04T23:55:03.078Z,20.86
2022-08-04T23:58:06.559Z,20.71
